createdAt,value
2024-04-01T00:00:20.799Z,50.36
2024-04-01T00:03:45.663Z,50.59
2024-04-01T00:06:31.806Z,50.71
2024-04-01T00:09:18.139Z,50.93
2024-04-01T00:12:05.081Z,51.00
2024-04-01T00:14:51.321Z,51.32
2024-04-01T00:17:37.541Z,51.58
2024-04-01T00:20:23.756Z,51.72
2024-04-01T00:23:10.086Z,51.67
2024-04-01T00:25:56.942Z,51.90
2024-04-01T00:28:42.882Z,52.02
2024-04-01T00:31:32.099Z,52.34
2024-04-01T00:34:18.811Z,52.40
2024-04-01T00:37:04.970Z,52.58
2024-04-01T00:39:51.410Z,52.65
2024-04-01T00:42:37.748Z,52.86
2024-04-01T00:45:23.701Z,53.10
2024-04-01T00:48:13.109Z,53.24
2024-04-01T00:51:00.708Z,53.28
2024-04-01T00:53:47.011Z,53.37
2024-04-01T00:56:35.056Z,53.57
2024-04-01T00:59:21.984Z,53.87
2024-04-01T01:02:08.372Z,54.11
2024-04-01T01:04:54.160Z,54.12
2024-04-01T01:07:41.217Z,54.24
2024-04-01T01:10:27.480Z,54.22
2024-04-01T01:13:16.168Z,54.47
2024-04-01T01:16:03.254Z,54.50
2024-04-01T01:18:51.069Z,54.52
2024-04-01T01:21:37.103Z,54.64
2024-04-01T01:24:23.120Z,54.73
2024-04-01T01:27:09.670Z,54.92
2024-04-01T01:29:56.239Z,55.11
2024-04-01T01:32:54.752Z,55.07
2024-04-01T01:35:41.843Z,55.21
2024-04-01T01:38:28.299Z,55.27
2024-04-01T01:41:15.045Z,55.52
2024-04-01T01:44:02.899Z,55.64
2024-04-01T01:46:49.052Z,55.65
2024-04-01T01:49:35.332Z,55.76
2024-04-01T01:52:22.253Z,55.80
2024-04-01T01:55:08.694Z,55.92
2024-04-01T01:57:54.978Z,55.78
2024-04-01T02:00:41.399Z,55.87
2024-04-01T02:03:27.433Z,56.11
2024-04-01T02:06:16.192Z,56.18
2024-04-01T02:09:02.435Z,56.16
2024-04-01T02:11:48.560Z,56.26
2024-04-01T02:14:36.302Z,56.50
2024-04-01T02:17:22.365Z,56.60
2024-04-01T02:20:12.472Z,56.69
2024-04-01T02:23:03.072Z,56.70
2024-04-01T02:25:49.049Z,56.60
2024-04-01T02:28:36.481Z,56.71
2024-04-01T02:31:22.926Z,56.73
2024-04-01T02:34:09.110Z,56.68
2024-04-01T02:36:55.247Z,56.71
2024-04-01T02:39:41.479Z,56.77
2024-04-01T02:42:28.083Z,56.84
2024-04-01T02:45:14.342Z,56.87
2024-04-01T02:48:00.394Z,56.98
2024-04-01T02:50:48.036Z,57.14
2024-04-01T02:53:35.700Z,57.42
2024-04-01T02:56:21.891Z,57.56
2024-04-01T02:59:10.398Z,57.66
2024-04-01T03:01:56.400Z,57.83
2024-04-01T03:04:42.515Z,57.68
2024-04-01T03:07:29.568Z,57.49
2024-04-01T03:10:16.214Z,57.36
2024-04-01T03:13:08.525Z,57.50
2024-04-01T03:15:55.914Z,57.51
2024-04-01T03:18:42.256Z,57.55
2024-04-01T03:21:28.486Z,57.56
2024-04-01T03:24:14.310Z,57.63
2024-04-01T03:27:00.789Z,57.56
2024-04-01T03:29:46.786Z,57.51
2024-04-01T03:32:33.009Z,57.58
2024-04-01T03:35:19.505Z,57.52
2024-04-01T03:38:06.855Z,57.72
2024-04-01T03:40:53.135Z,57.79
2024-04-01T03:43:39.418Z,57.76
2024-04-01T03:46:25.562Z,57.72
2024-04-01T03:49:11.318Z,57.51
2024-04-01T03:51:57.840Z,57.77
2024-04-01T03:54:44.407Z,57.84
2024-04-01T03:57:30.628Z,57.80
2024-04-01T04:00:17.364Z,57.86
2024-04-01T04:03:07.804Z,57.68
2024-04-01T04:05:53.751Z,57.67
2024-04-01T04:08:39.732Z,57.56
2024-04-01T04:11:25.901Z,57.64
2024-04-01T04:14:12.406Z,57.70
2024-04-01T04:16:58.806Z,57.77
2024-04-01T04:19:45.385Z,57.72
2024-04-01T04:22:33.586Z,57.83
2024-04-01T04:25:20.126Z,57.82
2024-04-01T04:28:06.473Z,57.92
2024-04-01T04:30:52.671Z,57.81
2024-04-01T04:33:38.776Z,57.89
2024-04-01T04:36:25.062Z,57.69
2024-04-01T04:39:20.117Z,58.21
2024-04-01T04:42:06.788Z,57.93
2024-04-01T04:44:53.522Z,58.09
2024-04-01T04:47:39.438Z,58.38
2024-04-01T04:50:25.396Z,58.07
2024-04-01T04:53:11.596Z,58.23
2024-04-01T04:55:58.384Z,58.22
2024-04-01T04:58:44.512Z,58.47
2024-04-01T05:01:32.356Z,58.75
2024-04-01T05:04:18.034Z,58.80
2024-04-01T05:07:05.017Z,58.88
2024-04-01T05:09:51.154Z,59.09
2024-04-01T05:12:38.864Z,59.09
2024-04-01T05:15:25.196Z,59.27
2024-04-01T05:18:11.255Z,59.46
2024-04-01T05:20:57.971Z,59.48
2024-04-01T05:23:44.605Z,59.90
2024-04-01T05:26:31.010Z,59.99
2024-04-01T05:29:17.006Z,59.76
2024-04-01T05:32:03.694Z,59.87
2024-04-01T05:34:51.854Z,59.97
2024-04-01T05:37:38.069Z,60.13
2024-04-01T05:40:25.469Z,59.96
2024-04-01T05:43:11.506Z,60.07
2024-04-01T05:45:57.781Z,60.29
2024-04-01T05:48:43.878Z,60.29
2024-04-01T05:51:30.443Z,60.18
2024-04-01T05:54:16.495Z,60.37
2024-04-01T05:57:04.026Z,60.32
2024-04-01T05:59:50.311Z,59.76
2024-04-01T06:02:36.587Z,59.68
2024-04-01T06:05:22.918Z,59.59
2024-04-01T06:08:09.218Z,59.48
2024-04-01T06:10:55.207Z,59.45
2024-04-01T06:13:41.513Z,59.23
2024-04-01T06:16:27.792Z,58.93
2024-04-01T06:19:14.112Z,58.83
2024-04-01T06:22:00.598Z,58.60
2024-04-01T06:24:48.472Z,58.65
2024-04-01T06:27:34.756Z,58.10
2024-04-01T06:30:21.047Z,57.80
2024-04-01T06:33:07.093Z,57.39
2024-04-01T06:36:02.372Z,57.27
2024-04-01T06:38:49.398Z,56.20
2024-04-01T06:41:38.909Z,56.09
2024-04-01T06:44:24.938Z,55.39
2024-04-01T06:47:11.609Z,55.63
2024-04-01T06:49:58.076Z,55.19
2024-04-01T06:52:44.264Z,54.80
2024-04-01T06:55:30.628Z,54.52
2024-04-01T06:58:17.264Z,54.15
2024-04-01T07:01:04.094Z,54.08
2024-04-01T07:03:50.068Z,53.54
2024-04-01T07:06:36.083Z,53.70
2024-04-01T07:09:22.467Z,53.80
2024-04-01T07:12:08.616Z,53.61
2024-04-01T07:14:55.097Z,54.00
2024-04-01T07:17:43.716Z,54.00
2024-04-01T07:20:29.918Z,53.57
2024-04-01T07:23:16.158Z,53.59
2024-04-01T07:26:02.587Z,53.59
2024-04-01T07:28:48.735Z,52.84
2024-04-01T07:31:34.922Z,52.56
2024-04-01T07:34:21.553Z,52.36
2024-04-01T07:37:07.413Z,51.65
2024-04-01T07:39:55.205Z,51.54
2024-04-01T07:42:46.243Z,51.84
2024-04-01T07:45:32.518Z,52.06
2024-04-01T07:48:19.766Z,51.68
2024-04-01T07:51:06.252Z,50.98
2024-04-01T07:53:52.294Z,51.05
2024-04-01T07:56:38.285Z,50.72
2024-04-01T07:59:25.053Z,49.85
2024-04-01T08:02:11.598Z,50.13
2024-04-01T08:05:00.083Z,50.18
2024-04-01T08:07:46.298Z,50.65
2024-04-01T08:10:32.382Z,50.57
2024-04-01T08:13:18.472Z,50.74
2024-04-01T08:16:05.438Z,50.34
2024-04-01T08:18:52.104Z,49.27
2024-04-01T08:21:38.617Z,49.52
2024-04-01T08:24:24.596Z,49.75
2024-04-01T08:27:10.900Z,50.43
2024-04-01T08:29:57.070Z,49.64
2024-04-01T08:32:43.280Z,49.76
2024-04-01T08:35:29.279Z,50.19
2024-04-01T08:38:15.115Z,49.81
2024-04-01T08:41:11.414Z,49.22
2024-04-01T08:44:11.636Z,48.31
2024-04-01T08:46:59.921Z,48.38
2024-04-01T08:50:04.265Z,47.24
2024-04-01T08:52:59.761Z,45.78
2024-04-01T08:55:45.600Z,46.56
2024-04-01T08:58:33.242Z,46.46
2024-04-01T09:01:20.792Z,46.81
2024-04-01T09:04:07.295Z,47.61
2024-04-01T09:06:53.113Z,46.98
2024-04-01T09:09:40.408Z,46.64
2024-04-01T09:12:28.215Z,46.57
2024-04-01T09:15:16.062Z,45.86
2024-04-01T09:18:04.002Z,45.34
2024-04-01T09:20:50.404Z,45.32
2024-04-01T09:23:43.224Z,43.83
2024-04-01T09:26:33.164Z,43.89
2024-04-01T09:29:21.898Z,43.56
2024-04-01T09:32:08.123Z,43.25
2024-04-01T09:34:59.414Z,42.29
2024-04-01T09:37:47.723Z,41.87
2024-04-01T09:40:33.784Z,42.65
2024-04-01T09:43:38.362Z,41.92
2024-04-01T09:46:33.189Z,40.90
2024-04-01T09:49:20.374Z,40.73
2024-04-01T09:52:09.701Z,39.67
2024-04-01T09:55:22.822Z,39.85
2024-04-01T09:58:46.826Z,39.17
2024-04-01T10:02:21.742Z,39.56
2024-04-01T10:05:32.414Z,39.91
2024-04-01T10:09:03.507Z,38.39
2024-04-01T10:12:15.707Z,39.36
2024-04-01T10:15:37.263Z,38.12
2024-04-01T10:18:49.003Z,38.17
2024-04-01T10:22:28.013Z,37.81
2024-04-01T10:25:17.210Z,37.31
2024-04-01T10:28:45.109Z,37.88
2024-04-01T10:32:05.624Z,37.46
2024-04-01T10:35:51.548Z,36.93
2024-04-01T10:39:31.638Z,37.14
2024-04-01T10:42:51.959Z,36.54
2024-04-01T10:45:52.518Z,35.23
2024-04-01T10:49:22.137Z,35.82
2024-04-01T10:52:32.425Z,37.08
2024-04-01T10:55:33.650Z,37.30
2024-04-01T10:58:29.059Z,36.33
2024-04-01T11:01:58.518Z,36.03
2024-04-01T11:04:59.686Z,35.18
2024-04-01T11:08:18.888Z,35.82
2024-04-01T11:11:32.691Z,36.71
2024-04-01T11:14:25.485Z,37.18
2024-04-01T11:17:11.971Z,36.05
2024-04-01T11:20:35.896Z,37.25
2024-04-01T11:23:30.986Z,35.85
2024-04-01T11:27:24.320Z,36.19
2024-04-01T11:30:27.172Z,37.11
2024-04-01T11:33:18.829Z,37.76
2024-04-01T11:36:06.013Z,37.12
2024-04-01T11:39:09.855Z,37.81
2024-04-01T11:41:59.806Z,38.03
2024-04-01T11:44:46.633Z,35.74
2024-04-01T11:47:37.021Z,35.09
2024-04-01T11:50:23.569Z,34.73
2024-04-01T11:53:10.011Z,35.67
2024-04-01T11:56:00.747Z,34.92
2024-04-01T11:58:49.047Z,35.66
2024-04-01T12:01:42.329Z,36.11
2024-04-01T12:04:31.545Z,36.25
2024-04-01T12:07:18.177Z,36.37
2024-04-01T12:10:06.140Z,36.51
2024-04-01T12:12:54.342Z,36.66
2024-04-01T12:15:43.304Z,36.55
2024-04-01T12:18:29.663Z,36.83
2024-04-01T12:21:23.309Z,37.09
2024-04-01T12:24:09.939Z,36.73
2024-04-01T12:26:56.660Z,37.31
2024-04-01T12:29:42.750Z,36.72
2024-04-01T12:32:39.874Z,36.52
2024-04-01T12:35:26.646Z,35.34
2024-04-01T12:38:13.999Z,36.25
2024-04-01T12:41:01.850Z,35.22
2024-04-01T12:43:51.406Z,34.53
2024-04-01T12:46:41.352Z,34.36
2024-04-01T12:49:27.648Z,34.78
2024-04-01T12:52:27.810Z,34.46
2024-04-01T12:55:26.424Z,33.61
2024-04-01T12:58:27.057Z,34.99
2024-04-01T13:01:48.098Z,34.31
2024-04-01T13:05:12.309Z,33.43
2024-04-01T13:08:22.175Z,34.70
2024-04-01T13:11:36.453Z,32.65
2024-04-01T13:14:54.368Z,32.58
2024-04-01T13:17:59.867Z,31.91
2024-04-01T13:21:17.945Z,31.73
2024-04-01T13:24:10.925Z,32.10
2024-04-01T13:27:19.944Z,32.51
2024-04-01T13:30:27.521Z,31.19
2024-04-01T13:33:44.957Z,30.96
2024-04-01T13:37:06.162Z,31.62
2024-04-01T13:40:26.476Z,32.26
2024-04-01T13:43:34.249Z,31.55
2024-04-01T13:46:55.670Z,30.85
2024-04-01T13:50:17.214Z,30.84
2024-04-01T13:53:44.531Z,30.94
2024-04-01T13:56:54.312Z,30.83
2024-04-01T13:59:47.447Z,30.68
2024-04-01T14:02:52.548Z,30.08
2024-04-01T14:06:18.622Z,30.76
2024-04-01T14:09:43.630Z,31.70
2024-04-01T14:12:53.381Z,31.07
2024-04-01T14:16:20.217Z,30.39
2024-04-01T14:19:17.767Z,30.37
2024-04-01T14:22:03.796Z,30.32
2024-04-01T14:25:01.158Z,31.69
2024-04-01T14:27:48.616Z,30.73
2024-04-01T14:30:35.707Z,30.86
2024-04-01T14:33:22.009Z,31.16
2024-04-01T14:36:08.828Z,31.79
2024-04-01T14:38:55.750Z,31.72
2024-04-01T14:41:42.316Z,30.95
2024-04-01T14:44:30.080Z,31.77
2024-04-01T14:47:16.229Z,32.04
2024-04-01T14:50:04.881Z,32.38
2024-04-01T14:52:51.824Z,33.09
2024-04-01T14:55:41.129Z,33.06
2024-04-01T14:58:28.011Z,33.20
2024-04-01T15:01:15.402Z,32.85
2024-04-01T15:04:11.893Z,32.86
2024-04-01T15:06:58.945Z,32.82
2024-04-01T15:09:45.431Z,33.28
2024-04-01T15:12:31.460Z,33.19
2024-04-01T15:15:19.461Z,33.03
2024-04-01T15:18:05.765Z,32.97
2024-04-01T15:20:53.399Z,33.26
2024-04-01T15:23:42.460Z,34.13
2024-04-01T15:26:30.716Z,33.63
2024-04-01T15:29:17.579Z,33.47
2024-04-01T15:32:04.350Z,34.17
2024-04-01T15:34:51.212Z,33.57
2024-04-01T15:37:37.663Z,33.66
2024-04-01T15:40:24.302Z,32.86
2024-04-01T15:43:12.773Z,33.32
2024-04-01T15:46:00.138Z,32.48
2024-04-01T15:48:47.991Z,32.31
2024-04-01T15:51:33.934Z,32.17
2024-04-01T15:54:20.618Z,32.56
2024-04-01T15:57:06.927Z,32.87
2024-04-01T15:59:53.327Z,32.70
2024-04-01T16:02:43.049Z,32.99
2024-04-01T16:05:30.119Z,32.99
2024-04-01T16:08:17.036Z,33.15
2024-04-01T16:11:06.682Z,33.04
2024-04-01T16:13:57.921Z,33.46
2024-04-01T16:16:46.678Z,33.51
2024-04-01T16:19:34.859Z,33.57
2024-04-01T16:22:23.168Z,33.80
2024-04-01T16:25:11.232Z,33.98
2024-04-01T16:28:07.710Z,33.96
2024-04-01T16:31:01.925Z,34.44
2024-04-01T16:33:48.750Z,34.55
2024-04-01T16:36:40.550Z,34.57
2024-04-01T16:39:27.820Z,34.32
2024-04-01T16:42:15.810Z,34.42
2024-04-01T16:45:06.652Z,34.69
2024-04-01T16:47:52.873Z,34.87
2024-04-01T16:50:40.321Z,34.60
2024-04-01T16:53:29.150Z,34.08
2024-04-01T16:56:15.339Z,34.04
2024-04-01T16:59:01.822Z,34.14
2024-04-01T17:01:48.566Z,34.13
2024-04-01T17:04:39.783Z,34.31
2024-04-01T17:07:26.256Z,34.47
2024-04-01T17:10:14.466Z,34.57
2024-04-01T17:13:00.954Z,34.22
2024-04-01T17:15:49.082Z,34.62
2024-04-01T17:18:34.906Z,34.95
2024-04-01T17:21:23.343Z,34.51
2024-04-01T17:24:11.859Z,34.71
2024-04-01T17:26:59.717Z,34.58
2024-04-01T17:29:46.015Z,34.25
2024-04-01T17:32:32.413Z,34.09
2024-04-01T17:35:19.528Z,33.51
2024-04-01T17:38:06.707Z,33.51
2024-04-01T17:40:53.605Z,33.80
2024-04-01T17:43:43.445Z,34.03
2024-04-01T17:46:30.358Z,33.83
2024-04-01T17:49:17.086Z,33.82
2024-04-01T17:52:04.111Z,33.52
2024-04-01T17:54:51.251Z,34.04
2024-04-01T17:57:37.520Z,33.68
2024-04-01T18:00:23.688Z,33.64
2024-04-01T18:03:12.918Z,33.72
2024-04-01T18:06:03.419Z,33.68
2024-04-01T18:08:49.841Z,33.90
2024-04-01T18:11:38.929Z,34.21
2024-04-01T18:14:25.330Z,34.21
2024-04-01T18:17:12.330Z,34.14
2024-04-01T18:19:59.415Z,33.89
2024-04-01T18:22:45.543Z,33.85
2024-04-01T18:25:33.976Z,33.96
2024-04-01T18:28:19.979Z,34.19
2024-04-01T18:31:05.942Z,34.60
2024-04-01T18:33:52.557Z,34.42
2024-04-01T18:36:38.956Z,35.12
2024-04-01T18:39:26.792Z,34.73
2024-04-01T18:42:12.814Z,34.99
2024-04-01T18:44:58.887Z,35.21
2024-04-01T18:47:45.189Z,35.21
2024-04-01T18:50:31.826Z,35.41
2024-04-01T18:53:19.658Z,36.00
2024-04-01T18:56:06.647Z,36.05
2024-04-01T18:58:53.291Z,36.26
2024-04-01T19:01:38.998Z,36.49
2024-04-01T19:04:25.146Z,36.84
2024-04-01T19:07:11.141Z,40.07
2024-04-01T19:09:57.172Z,43.64
2024-04-01T19:12:44.149Z,45.22
2024-04-01T19:15:30.206Z,46.27
2024-04-01T19:18:16.657Z,46.95
2024-04-01T19:21:22.156Z,47.49
2024-04-01T19:24:14.513Z,48.06
2024-04-01T19:27:01.068Z,48.54
2024-04-01T19:29:47.788Z,49.07
2024-04-01T19:32:34.020Z,49.49
2024-04-01T19:35:20.160Z,49.72
2024-04-01T19:38:06.491Z,50.04
2024-04-01T19:40:52.910Z,50.27
2024-04-01T19:43:39.063Z,50.71
2024-04-01T19:46:25.706Z,51.14
2024-04-01T19:49:12.108Z,51.16
2024-04-01T19:51:58.686Z,51.02
2024-04-01T19:54:45.289Z,51.00
2024-04-01T19:57:35.819Z,51.43
2024-04-01T20:00:27.319Z,51.69
2024-04-01T20:03:13.415Z,52.09
2024-04-01T20:05:59.734Z,52.47
2024-04-01T20:08:46.324Z,52.59
2024-04-01T20:11:32.672Z,52.65
2024-04-01T20:14:21.875Z,52.94
2024-04-01T20:17:10.289Z,52.98
2024-04-01T20:19:56.370Z,53.40
2024-04-01T20:22:42.666Z,53.47
2024-04-01T20:25:29.692Z,53.36
2024-04-01T20:28:18.009Z,53.79
2024-04-01T20:31:04.831Z,53.85
2024-04-01T20:33:51.855Z,54.47
2024-04-01T20:36:39.994Z,54.99
2024-04-01T20:39:28.992Z,55.31
2024-04-01T20:42:18.636Z,55.52
2024-04-01T20:45:07.100Z,56.01
2024-04-01T20:47:52.976Z,56.20
2024-04-01T20:50:39.407Z,56.84
2024-04-01T20:54:02.027Z,57.00
2024-04-01T20:56:39.703Z,57.38
2024-04-01T20:59:26.262Z,57.99
2024-04-01T21:02:24.006Z,58.71
2024-04-01T21:05:30.437Z,59.86
2024-04-01T21:08:16.993Z,60.85
2024-04-01T21:11:03.717Z,61.26
2024-04-01T21:13:53.401Z,61.22
2024-04-01T21:16:40.528Z,61.31
2024-04-01T21:19:26.609Z,61.11
2024-04-01T21:22:12.690Z,61.16
2024-04-01T21:24:59.198Z,60.73
2024-04-01T21:27:45.474Z,60.07
2024-04-01T21:30:31.838Z,59.84
2024-04-01T21:33:19.566Z,59.86
2024-04-01T21:36:05.938Z,60.22
2024-04-01T21:38:51.946Z,60.26
2024-04-01T21:41:38.467Z,60.26
2024-04-01T21:44:27.212Z,60.41
2024-04-01T21:47:13.397Z,60.42
2024-04-01T21:49:59.674Z,60.66
2024-04-01T21:52:45.999Z,60.56
2024-04-01T21:55:33.534Z,61.28
2024-04-01T21:58:20.852Z,62.13
2024-04-01T22:01:06.745Z,62.89
2024-04-01T22:03:53.107Z,63.54
2024-04-01T22:06:40.164Z,64.04
2024-04-01T22:09:26.163Z,65.24
2024-04-01T22:12:12.576Z,65.55
2024-04-01T22:15:02.639Z,65.78
2024-04-01T22:17:51.134Z,66.66
2024-04-01T22:20:37.231Z,66.53
2024-04-01T22:23:23.610Z,66.58
2024-04-01T22:26:11.348Z,67.16
2024-04-01T22:28:57.255Z,68.19
2024-04-01T22:31:43.647Z,68.63
2024-04-01T22:34:30.052Z,68.87
2024-04-01T22:37:17.797Z,69.46
2024-04-01T22:40:08.235Z,69.53
2024-04-01T22:42:54.411Z,69.81
2024-04-01T22:45:41.092Z,69.97
2024-04-01T22:48:27.836Z,70.43
2024-04-01T22:51:13.960Z,70.69
2024-04-01T22:53:59.965Z,70.66
2024-04-01T22:56:45.694Z,71.00
2024-04-01T22:59:33.812Z,71.04
2024-04-01T23:02:19.819Z,71.22
2024-04-01T23:05:05.917Z,71.27
2024-04-01T23:07:52.395Z,71.21
2024-04-01T23:10:38.171Z,71.13
2024-04-01T23:13:24.400Z,71.26
2024-04-01T23:16:13.292Z,71.59
2024-04-01T23:19:00.684Z,72.03
2024-04-01T23:21:46.810Z,72.34
2024-04-01T23:24:33.179Z,72.13
2024-04-01T23:27:19.972Z,72.52
2024-04-01T23:30:07.401Z,72.60
2024-04-01T23:32:53.105Z,72.51
2024-04-01T23:35:39.315Z,72.72
2024-04-01T23:38:25.647Z,72.95
2024-04-01T23:41:20.005Z,73.18
2024-04-01T23:44:06.242Z,72.75
2024-04-01T23:46:52.357Z,72.86
2024-04-01T23:49:38.909Z,73.31
2024-04-01T23:52:24.979Z,73.68
2024-04-01T23:55:11.016Z,73.94
2024-04-01T23:57:57.105Z,73.67
